createdAt,value
2023-04-16T00:03:50.779Z,102261.25
2023-04-16T00:09:41.066Z,102263.31
2023-04-16T00:15:30.488Z,102260.41
2023-04-16T00:21:20.158Z,102254.41
2023-04-16T00:27:12.286Z,102262.16
2023-04-16T00:33:09.207Z,102260.44
2023-04-16T00:38:56.822Z,102261.56
2023-04-16T00:44:43.603Z,102258.34
2023-04-16T00:50:35.582Z,102257.78
2023-04-16T00:56:26.911Z,102257.31
2023-04-16T01:02:15.089Z,102249.50
2023-04-16T01:08:02.316Z,102251.25
2023-04-16T01:13:52.090Z,102242.94
2023-04-16T01:19:39.013Z,102242.03
2023-04-16T01:25:28.909Z,102237.19
2023-04-16T01:31:15.961Z,102242.13
2023-04-16T01:37:13.467Z,102234.09
2023-04-16T01:43:00.617Z,102233.84
2023-04-16T01:48:47.504Z,102235.13
2023-04-16T01:54:34.208Z,102238.13
2023-04-16T02:00:21.126Z,102237.28
2023-04-16T02:06:07.887Z,102239.72
2023-04-16T02:11:56.024Z,102235.13
2023-04-16T02:17:43.936Z,102231.00
2023-04-16T02:23:31.051Z,102226.03
2023-04-16T02:29:19.863Z,102229.13
2023-04-16T02:35:13.256Z,102225.59
2023-04-16T02:41:11.036Z,102216.38
2023-04-16T02:46:58.070Z,102210.19
2023-04-16T02:52:45.101Z,102209.00
2023-04-16T02:58:31.943Z,102208.78
2023-04-16T03:04:21.662Z,102208.34
2023-04-16T03:10:10.493Z,102211.56
2023-04-16T03:15:59.891Z,102214.78
2023-04-16T03:21:48.285Z,102214.78
2023-04-16T03:27:42.090Z,102223.84
2023-04-16T03:33:33.341Z,102220.28
2023-04-16T03:39:22.892Z,102219.63
2023-04-16T03:45:10.321Z,102217.19
2023-04-16T03:50:59.432Z,102211.66
2023-04-16T03:56:50.158Z,102224.53
2023-04-16T04:02:39.994Z,102231.88
2023-04-16T04:08:31.604Z,102230.75
2023-04-16T04:14:20.896Z,102234.34
2023-04-16T04:20:08.102Z,102233.16
2023-04-16T04:25:56.469Z,102226.75
2023-04-16T04:31:44.991Z,102228.00
2023-04-16T04:37:40.735Z,102231.09
2023-04-16T04:43:49.553Z,102236.44
2023-04-16T04:49:37.566Z,102236.44
2023-04-16T04:55:27.024Z,102228.00
2023-04-16T05:01:17.306Z,102233.50
2023-04-16T05:07:05.261Z,102237.44
2023-04-16T05:12:56.717Z,102243.38
2023-04-16T05:18:46.364Z,102238.81
2023-04-16T05:24:35.278Z,102238.00
2023-04-16T05:30:24.933Z,102234.44
2023-04-16T05:36:16.566Z,102233.16
2023-04-16T05:42:03.822Z,102230.28
2023-04-16T05:47:50.768Z,102234.88
2023-04-16T05:53:49.402Z,102240.19
2023-04-16T05:59:53.633Z,102228.38
2023-04-16T06:05:41.722Z,102232.44
2023-04-16T06:11:30.223Z,102247.41
2023-04-16T06:17:17.137Z,102246.50
2023-04-16T06:23:07.921Z,102240.81
2023-04-16T06:28:57.600Z,102249.50
2023-04-16T06:34:47.458Z,102248.59
2023-04-16T06:40:34.329Z,102252.53
2023-04-16T06:46:21.308Z,102259.13
2023-04-16T06:52:09.138Z,102260.44
2023-04-16T06:57:56.506Z,102259.31
2023-04-16T07:03:43.549Z,102261.44
2023-04-16T07:09:32.178Z,102270.22
2023-04-16T07:15:19.070Z,102269.91
2023-04-16T07:21:05.813Z,102269.78
2023-04-16T07:26:52.877Z,102267.00
2023-04-16T07:32:39.820Z,102271.13
2023-04-16T07:38:26.581Z,102255.69
2023-04-16T07:44:14.076Z,102266.00
2023-04-16T07:50:01.750Z,102271.06
2023-04-16T07:55:48.814Z,102265.69
2023-04-16T08:01:36.559Z,102265.78
2023-04-16T08:07:23.293Z,102279.13
2023-04-16T08:13:10.040Z,102281.88
2023-04-16T08:19:10.822Z,102269.63
2023-04-16T08:24:57.946Z,102274.16
2023-04-16T08:30:45.986Z,102281.31
2023-04-16T08:36:32.859Z,102276.47
2023-04-16T08:42:40.888Z,102276.44
2023-04-16T08:48:33.646Z,102282.50
2023-04-16T08:54:44.845Z,102273.50
2023-04-16T09:00:32.776Z,102284.38
2023-04-16T09:06:28.274Z,102278.41
2023-04-16T09:12:52.132Z,102291.47
2023-04-16T09:18:39.064Z,102293.47
2023-04-16T09:24:32.021Z,102296.56
2023-04-16T09:30:27.544Z,102295.63
2023-04-16T09:36:23.600Z,102289.78
2023-04-16T09:42:11.864Z,102292.50
2023-04-16T09:48:06.167Z,102288.69
2023-04-16T09:53:57.220Z,102285.69
2023-04-16T09:59:44.015Z,102299.00
2023-04-16T10:05:34.082Z,102287.16
2023-04-16T10:11:24.423Z,102283.75
2023-04-16T10:17:11.683Z,102289.63
2023-04-16T10:22:59.100Z,102301.13
2023-04-16T10:28:47.163Z,102283.44
2023-04-16T10:34:35.112Z,102285.25
2023-04-16T10:40:28.297Z,102290.25
2023-04-16T10:46:54.963Z,102286.13
2023-04-16T10:53:15.686Z,102285.00
2023-04-16T10:59:09.334Z,102280.38
2023-04-16T11:05:07.081Z,102274.69
2023-04-16T11:10:58.925Z,102280.91
2023-04-16T11:16:46.203Z,102269.97
2023-04-16T11:22:40.755Z,102266.63
2023-04-16T11:28:34.889Z,102259.91
2023-04-16T11:34:27.426Z,102259.72
2023-04-16T11:40:20.322Z,102267.06
2023-04-16T11:46:20.541Z,102260.25
2023-04-16T11:52:33.343Z,102257.72
2023-04-16T11:58:43.437Z,102263.25
2023-04-16T12:04:33.447Z,102251.06
2023-04-16T12:10:20.089Z,102255.56
2023-04-16T12:16:19.711Z,102264.00
2023-04-16T12:22:06.627Z,102275.81
2023-04-16T12:27:56.016Z,102267.84
2023-04-16T12:33:42.785Z,102256.59
2023-04-16T12:39:29.781Z,102254.91
2023-04-16T12:45:16.914Z,102250.59
2023-04-16T12:51:03.850Z,102250.63
2023-04-16T12:56:50.843Z,102256.88
2023-04-16T13:02:37.948Z,102248.75
2023-04-16T13:08:24.992Z,102245.00
2023-04-16T13:14:11.817Z,102259.34
2023-04-16T13:19:58.733Z,102255.69
2023-04-16T13:25:45.593Z,102235.88
2023-04-16T13:31:32.513Z,102240.38
2023-04-16T13:37:19.457Z,102238.19
2023-04-16T13:43:07.777Z,102239.22
2023-04-16T13:48:55.215Z,102241.44
2023-04-16T13:54:42.731Z,102247.50
2023-04-16T14:00:42.300Z,102233.66
2023-04-16T14:06:29.226Z,102241.56
2023-04-16T14:12:16.488Z,102243.53
2023-04-16T14:18:03.949Z,102247.16
2023-04-16T14:23:51.490Z,102252.50
2023-04-16T14:29:38.484Z,102245.63
2023-04-16T14:35:25.722Z,102240.56
2023-04-16T14:41:13.572Z,102234.63
2023-04-16T14:47:00.709Z,102228.56
2023-04-16T14:52:47.495Z,102228.06
2023-04-16T14:58:37.292Z,102232.31
2023-04-16T15:04:26.299Z,102216.25
2023-04-16T15:10:14.013Z,102223.53
2023-04-16T15:16:07.424Z,102214.94
2023-04-16T15:21:55.909Z,102211.06
2023-04-16T15:27:43.125Z,102200.31
2023-04-16T15:33:29.823Z,102189.25
2023-04-16T15:39:16.490Z,102196.13
2023-04-16T15:45:03.325Z,102204.50
2023-04-16T15:50:50.481Z,102203.50
2023-04-16T15:56:37.414Z,102194.13
2023-04-16T16:02:24.746Z,102203.31
2023-04-16T16:08:11.854Z,102208.41
2023-04-16T16:14:01.153Z,102195.56
2023-04-16T16:19:47.914Z,102201.34
2023-04-16T16:25:34.834Z,102211.25
2023-04-16T16:31:25.087Z,102208.34
2023-04-16T16:37:20.995Z,102201.94
2023-04-16T16:43:09.959Z,102204.34
2023-04-16T16:48:56.876Z,102205.84
2023-04-16T16:54:44.824Z,102216.19
2023-04-16T17:00:31.989Z,102212.94
2023-04-16T17:06:19.249Z,102200.25
2023-04-16T17:12:06.505Z,102200.19
2023-04-16T17:18:07.920Z,102206.28
2023-04-16T17:24:03.824Z,102200.38
2023-04-16T17:30:12.492Z,102201.72
2023-04-16T17:36:01.685Z,102193.75
2023-04-16T17:41:54.379Z,102203.16
2023-04-16T17:47:44.906Z,102208.75
2023-04-16T18:00:32.093Z,102211.72
2023-04-16T18:22:07.927Z,102237.50
2023-04-16T18:27:54.961Z,102234.44
2023-04-16T18:33:57.410Z,102240.94
2023-04-16T18:39:45.429Z,102243.63
2023-04-16T18:45:40.053Z,102249.03
2023-04-16T18:51:44.735Z,102247.19
2023-04-16T18:57:52.234Z,102259.72
2023-04-16T19:19:45.192Z,102270.97
2023-04-16T19:39:51.627Z,102294.41
2023-04-16T19:53:50.560Z,102291.72
2023-04-16T20:23:37.674Z,102311.91
2023-04-16T20:36:57.477Z,102327.06
2023-04-16T20:50:25.680Z,102332.41
2023-04-16T21:04:12.059Z,102327.84
2023-04-16T21:10:00.988Z,102319.91
2023-04-16T21:15:50.826Z,102319.91
2023-04-16T21:28:53.310Z,102316.16
2023-04-16T21:35:19.870Z,102311.09
2023-04-16T21:41:12.498Z,102316.97
2023-04-16T21:47:10.842Z,102320.97
2023-04-16T21:52:58.104Z,102321.47
2023-04-16T21:58:47.586Z,102328.97
2023-04-16T22:11:50.064Z,102324.63
2023-04-16T22:17:49.528Z,102326.94
2023-04-16T22:23:52.245Z,102322.34
2023-04-16T22:30:27.861Z,102324.50
2023-04-16T23:07:06.959Z,102304.88
2023-04-16T23:13:03.004Z,102307.56
2023-04-16T23:19:00.530Z,102297.16
2023-04-16T23:24:49.983Z,102296.38
2023-04-16T23:30:51.193Z,102307.22
2023-04-16T23:37:00.963Z,102297.16
2023-04-16T23:42:47.823Z,102300.63
2023-04-16T23:48:38.563Z,102308.06
2023-04-16T23:54:29.305Z,102317.09
